CYFC

Fredericton Airport

Fredericton, New Brunswick, Canada
METAR CYFC 141300Z AUTO 17006KT 9SM SCT065 SCT200 23/19 A2997 RMK SLP149 DENSITY ALT 900FT
Observed Flight Rules
Aug-14 @ 13:00 UTC (42 minutes ago) Visual Flight Rules
Wind Visibility Clouds
170° at 6 knots 9 miles
  • Scattered at 6,500' AGL
  • Scattered at 20,000' AGL
Temperatures Readings
Current 23°C / 73°F
Dewpoint 19°C / 66°F
Humidity 78%
Altimeter 29.97" Hg
Pressure 1014.9 hPa
Elevation 20
METAR CYFC 141300Z AUTO 17006KT 9SM SCT065 SCT200 23/19 A2997 RMK SLP149 DENSITY ALT 900FT
Observed Flight Rules
Aug-14 @ 13:00 UTC
(42 minutes ago)
VFR
Wind Visibility
170° at 6 knots 9 miles
Clouds
  • Scattered at 6,500' AGL
  • Scattered at 20,000' AGL
Temperature Dewpoint
23°C / 73°F 19°C / 66°F
Humidity Altimeter Pressure
78% 29.97" Hg 1014.9 hPa